KLIT

Bill and Hillary Clinton National / Adams Field Airport

Little Rock, Arkansas, USA
METAR KLIT 222053Z 00000KT 10SM FEW100 BKN200 17/06 A3019 RMK AO2 SLP226 T01720056 56020
Observed Flight Rules
Oct-22 @ 20:53 UTC (33 minutes ago) Visual Flight Rules
Visibility Clouds
10 miles
  • Few at 10,000' AGL
  • Broken at 20,000' AGL
Temperatures Readings
Current 17°C / 63°F
Dewpoint 6°C / 43°F
Humidity 49%
Altimeter 30.19" Hg
Pressure 1022.6 hPa
Elevation 79
METAR KLIT 222053Z 00000KT 10SM FEW100 BKN200 17/06 A3019 RMK AO2 SLP226 T01720056 56020
Observed Flight Rules
Oct-22 @ 20:53 UTC
(33 minutes ago)
VFR
Clouds
  • Few at 10,000' AGL
  • Broken at 20,000' AGL
Temperature Dewpoint
17°C / 63°F 6°C / 43°F
Humidity Altimeter Pressure
49% 30.19" Hg 1022.6 hPa